Terminal Aerodrome Forecast
Issued by NWS

Home | Current Version | Previous Version | Text Only | Print | Product List | Glossary On
Versions: 1 2 3 4 5 6 7 8 9 10 11 12 13 14 15 16
309
FTUS46 KLOX 270538
TAFSBA
TAF
KSBA 270538Z 2706/2806 30007KT P6SM BKN120
     FM271100 34010KT P6SM BKN035 BKN120
     FM271700 28015KT P6SM SCT200 WS015/34030KT
     FM272300 30020G30KT P6SM SKC
     FM280300 33015KT P6SM SKC=

USA.gov is the U.S. government's official web portal to all federal, state and local government web resources and services.